TimeCST,TemperatureF,Dew PointF,Humidity,Sea Level PressureIn,VisibilityMPH,Wind Direction,Wind SpeedMPH,Gust SpeedMPH,PrecipitationIn,Events,Conditions,WindDirDegrees,DateUTC
12:15 AM,44.2,41.4,90,30.02,10.0,SSE,10.4,-,N/A,,Scattered Clouds,160,2013-11-16 06:15:00
12:35 AM,43.5,41.0,91,30.02,10.0,SSE,8.1,-,N/A,,Clear,160,2013-11-16 06:35:00
12:55 AM,43.9,41.7,92,30.01,7.0,SSE,8.1,-,N/A,,Mostly Cloudy,160,2013-11-16 06:55:00
1:15 AM,44.8,42.6,92,30.01,7.0,SSE,6.9,-,N/A,,Overcast,160,2013-11-16 07:15:00
1:35 AM,45.0,42.8,92,30.00,10.0,SSE,8.1,-,N/A,,Overcast,150,2013-11-16 07:35:00
1:55 AM,44.2,42.3,93,30.00,7.0,SSE,6.9,-,N/A,,Overcast,150,2013-11-16 07:55:00
2:15 AM,45.1,43.2,93,30.00,7.0,SSE,8.1,-,N/A,,Overcast,150,2013-11-16 08:15:00
2:35 AM,45.9,43.9,93,30.00,10.0,SSE,9.2,-,N/A,,Overcast,160,2013-11-16 08:35:00
2:55 AM,46.4,44.1,92,29.99,7.0,SSE,6.9,-,N/A,,Overcast,150,2013-11-16 08:55:00
3:15 AM,46.4,44.6,93,29.99,7.0,SSE,8.1,-,N/A,,Overcast,150,2013-11-16 09:15:00
3:35 AM,47.3,45.5,93,29.99,5.0,SSE,9.2,-,N/A,,Overcast,150,2013-11-16 09:35:00
3:55 AM,47.5,45.9,94,29.99,5.0,SSE,11.5,-,N/A,,Overcast,160,2013-11-16 09:55:00
4:15 AM,48.2,46.4,93,29.99,5.0,SSE,10.4,-,N/A,,Overcast,150,2013-11-16 10:15:00
4:35 AM,48.2,46.4,93,29.99,4.0,SSE,12.7,-,N/A,,Overcast,160,2013-11-16 10:35:00
4:55 AM,48.4,46.9,95,29.99,4.0,SSE,12.7,17.3,N/A,,Overcast,150,2013-11-16 10:55:00
5:15 AM,48.6,47.3,95,29.99,4.0,SSE,15.0,-,N/A,,Overcast,160,2013-11-16 11:15:00
5:35 AM,48.6,47.3,95,29.99,4.0,SSE,12.7,-,N/A,,Overcast,160,2013-11-16 11:35:00
5:55 AM,48.6,47.3,95,29.98,4.0,SSE,12.7,-,N/A,,Overcast,160,2013-11-16 11:55:00
6:15 AM,48.7,47.7,96,29.99,3.0,SSE,13.8,-,N/A,,Overcast,160,2013-11-16 12:15:00
6:35 AM,48.7,47.8,97,29.99,3.0,SSE,15.0,-,N/A,,Overcast,160,2013-11-16 12:35:00
6:55 AM,49.1,48.2,97,29.99,2.5,SSE,15.0,-,N/A,,Overcast,160,2013-11-16 12:55:00
7:15 AM,49.1,48.4,97,29.99,1.5,SSE,17.3,23.0,N/A,,Overcast,160,2013-11-16 13:15:00
7:35 AM,49.3,48.7,98,29.99,1.2,SSE,15.0,23.0,N/A,,Overcast,160,2013-11-16 13:35:00
7:55 AM,49.5,49.1,99,30.00,1.8,SSE,16.1,19.6,N/A,,Overcast,160,2013-11-16 13:55:00
8:15 AM,50.0,49.3,97,29.99,2.5,SSE,12.7,21.9,N/A,,Overcast,150,2013-11-16 14:15:00
8:35 AM,50.2,49.6,98,29.99,2.5,SSE,15.0,20.7,N/A,,Overcast,160,2013-11-16 14:35:00
8:55 AM,50.5,50.0,98,29.98,2.5,SSE,15.0,-,N/A,,Overcast,150,2013-11-16 14:55:00
9:15 AM,50.5,50.0,98,29.97,2.5,SSE,16.1,-,N/A,,Overcast,150,2013-11-16 15:15:00
9:35 AM,51.1,50.2,97,29.98,3.0,SSE,16.1,-,N/A,,Overcast,160,2013-11-16 15:35:00
9:55 AM,51.8,50.2,94,29.97,4.0,SSE,19.6,-,N/A,,Overcast,160,2013-11-16 15:55:00
10:15 AM,52.7,50.4,92,29.97,5.0,SSE,16.1,21.9,N/A,,Overcast,150,2013-11-16 16:15:00
10:35 AM,54.0,50.9,89,29.95,7.0,SSE,20.7,-,N/A,,Overcast,160,2013-11-16 16:35:00
10:55 AM,54.5,50.9,88,29.93,7.0,SSE,19.6,-,N/A,,Overcast,150,2013-11-16 16:55:00
11:15 AM,55.6,50.9,84,29.91,7.0,SSE,19.6,25.3,N/A,,Overcast,150,2013-11-16 17:15:00
11:35 AM,58.1,52.0,80,29.90,10.0,SSE,21.9,26.5,N/A,,Mostly Cloudy,160,2013-11-16 17:35:00
11:55 AM,58.3,51.4,78,29.89,10.0,SSE,20.7,25.3,N/A,,Scattered Clouds,160,2013-11-16 17:55:00
12:15 PM,60.1,51.6,74,29.87,10.0,SSE,24.2,32.2,N/A,,Scattered Clouds,160,2013-11-16 18:15:00
12:35 PM,61.0,52.0,72,29.87,10.0,South,24.2,29.9,N/A,,Scattered Clouds,170,2013-11-16 18:35:00
12:55 PM,62.4,52.0,69,29.86,10.0,South,23.0,35.7,N/A,,Scattered Clouds,170,2013-11-16 18:55:00
1:15 PM,63.7,52.5,67,29.86,10.0,South,20.7,27.6,N/A,,Clear,170,2013-11-16 19:15:00
1:35 PM,64.0,52.5,66,29.85,10.0,South,20.7,32.2,N/A,,Clear,180,2013-11-16 19:35:00
1:55 PM,63.0,52.3,68,29.84,10.0,South,24.2,32.2,N/A,,Clear,170,2013-11-16 19:55:00
2:15 PM,62.4,52.3,70,29.83,10.0,South,21.9,31.1,N/A,,Clear,170,2013-11-16 20:15:00
2:35 PM,62.2,52.7,71,29.83,10.0,South,19.6,29.9,N/A,,Clear,170,2013-11-16 20:35:00
2:55 PM,61.7,52.7,72,29.83,10.0,South,23.0,32.2,N/A,,Clear,170,2013-11-16 20:55:00
3:15 PM,61.7,52.9,73,29.84,10.0,South,16.1,26.5,N/A,,Mostly Cloudy,180,2013-11-16 21:15:00
3:35 PM,61.2,53.1,75,29.83,10.0,South,16.1,19.6,N/A,,Overcast,170,2013-11-16 21:35:00
3:55 PM,61.0,53.2,76,29.83,10.0,South,19.6,25.3,N/A,,Overcast,170,2013-11-16 21:55:00
4:15 PM,60.8,53.6,77,29.82,10.0,South,19.6,-,N/A,,Overcast,170,2013-11-16 22:15:00
4:35 PM,60.8,54.1,79,29.82,10.0,South,19.6,25.3,N/A,,Overcast,170,2013-11-16 22:35:00
4:55 PM,60.3,54.5,81,29.81,10.0,South,19.6,24.2,N/A,,Overcast,170,2013-11-16 22:55:00
5:15 PM,60.4,54.9,82,29.81,10.0,South,18.4,-,N/A,,Overcast,170,2013-11-16 23:15:00
5:35 PM,60.4,54.9,82,29.80,10.0,SSE,15.0,-,N/A,,Overcast,160,2013-11-16 23:35:00
5:55 PM,60.1,55.0,83,29.78,10.0,SSE,18.4,23.0,N/A,,Overcast,160,2013-11-16 23:55:00
6:15 PM,59.7,55.2,85,29.77,10.0,SSE,19.6,25.3,N/A,,Overcast,150,2013-11-17 00:15:00
6:35 PM,59.9,55.4,85,29.78,10.0,SSE,20.7,24.2,N/A,,Overcast,160,2013-11-17 00:35:00
6:55 PM,60.3,55.8,85,29.77,10.0,South,20.7,29.9,N/A,,Overcast,170,2013-11-17 00:55:00
7:15 PM,60.8,56.1,85,29.74,10.0,SSE,27.6,36.8,N/A,,Overcast,160,2013-11-17 01:15:00
7:35 PM,60.4,56.3,86,29.73,10.0,SSE,26.5,40.3,N/A,Thunderstorm,Mostly Cloudy,160,2013-11-17 01:35:00
7:55 PM,60.3,56.7,88,29.75,10.0,South,23.0,34.5,N/A,Rain,Light Rain,170,2013-11-17 01:55:00
8:15 PM,61.0,56.8,86,29.75,10.0,South,24.2,34.5,N/A,,Overcast,170,2013-11-17 02:15:00
8:35 PM,61.2,57.2,87,29.74,10.0,South,25.3,31.1,N/A,,Overcast,170,2013-11-17 02:35:00
8:55 PM,61.7,57.6,86,29.74,10.0,South,25.3,33.4,N/A,,Overcast,180,2013-11-17 02:55:00
9:15 PM,62.1,57.7,86,29.73,10.0,South,27.6,38.0,N/A,,Overcast,170,2013-11-17 03:15:00
9:35 PM,61.7,58.1,88,29.73,10.0,South,20.7,31.1,N/A,Thunderstorm,Overcast,180,2013-11-17 03:35:00
9:55 PM,62.2,58.1,86,29.73,10.0,South,24.2,32.2,N/A,Thunderstorm,Overcast,180,2013-11-17 03:55:00
10:15 PM,62.6,58.3,86,29.71,10.0,South,24.2,32.2,N/A,Thunderstorm,Thunderstorm,170,2013-11-17 04:15:00
10:35 PM,61.7,59.0,91,29.73,10.0,South,24.2,32.2,N/A,Rain-Thunderstorm,Light Thunderstorms and Rain,180,2013-11-17 04:35:00
10:55 PM,61.3,59.4,93,29.73,10.0,South,23.0,29.9,0.01,Rain,Light Rain,190,2013-11-17 04:55:00
11:15 PM,61.2,59.9,96,29.72,5.0,South,23.0,27.6,0.02,Rain-Thunderstorm,Light Thunderstorms and Rain,170,2013-11-17 05:15:00
11:35 PM,61.0,59.7,96,29.72,10.0,South,19.6,28.8,0.03,Rain-Thunderstorm,Light Thunderstorms and Rain,170,2013-11-17 05:35:00
11:55 PM,61.0,59.7,96,29.70,10.0,South,20.7,29.9,0.03,Rain-Thunderstorm,Light Thunderstorms and Rain,170,2013-11-17 05:55:00